createdAt,value
2019-05-18T02:08:55.836Z,10.60
2019-05-18T02:14:28.009Z,10.20
2019-05-18T02:20:54.297Z,10.20
2019-05-18T02:26:47.130Z,10.30
2019-05-18T02:54:25.958Z,10.30
2019-05-18T03:22:15.170Z,10.40
2019-05-18T03:33:33.680Z,10.20
2019-05-18T04:40:02.490Z,10.10
2019-05-18T04:45:36.622Z,10.20
2019-05-18T04:56:52.406Z,10.30
2019-05-18T05:07:45.363Z,10.70
2019-05-18T05:18:38.717Z,11.00
2019-05-18T05:29:57.253Z,11.30
2019-05-18T05:35:16.387Z,11.60
2019-05-18T05:41:04.024Z,11.70
2019-05-18T05:46:12.877Z,11.90
2019-05-18T05:51:41.764Z,12.00
2019-05-18T05:57:11.735Z,12.00
2019-05-18T06:02:42.282Z,12.00
2019-05-18T06:08:08.585Z,12.20
2019-05-18T06:13:47.831Z,12.20
2019-05-18T06:19:36.231Z,12.30
2019-05-18T06:24:45.005Z,12.40
2019-05-18T06:30:17.707Z,12.60
2019-05-18T06:35:38.471Z,12.70
2019-05-18T06:41:38.748Z,12.80
2019-05-18T06:46:55.864Z,12.90
2019-05-18T06:52:54.935Z,13.00
2019-05-18T06:58:38.091Z,13.10
2019-05-18T07:03:47.304Z,13.10
2019-05-18T07:09:15.316Z,13.20
2019-05-18T07:14:59.888Z,13.30
2019-05-18T07:27:34.122Z,13.40
2019-05-18T07:33:37.025Z,13.80
2019-05-18T07:44:51.693Z,14.00
2019-05-18T07:50:28.500Z,14.40
2019-05-18T07:55:50.793Z,14.60
2019-05-18T08:02:41.161Z,14.70
2019-05-18T08:07:39.513Z,15.00
2019-05-18T08:13:06.721Z,15.20
2019-05-18T08:18:05.466Z,15.50
2019-05-18T08:22:59.506Z,15.70
2019-05-18T08:28:11.815Z,16.40
2019-05-18T08:33:16.375Z,17.60
2019-05-18T08:38:05.964Z,18.50
2019-05-18T08:43:23.362Z,19.30
2019-05-18T08:48:22.506Z,19.40
2019-05-18T08:53:58.383Z,20.30
2019-05-18T08:59:55.881Z,21.20
2019-05-18T09:04:41.511Z,21.50
2019-05-18T09:09:42.365Z,21.80
2019-05-18T09:14:34.975Z,21.80
2019-05-18T09:19:27.125Z,21.70
2019-05-18T09:24:19.992Z,21.40
2019-05-18T09:29:21.162Z,21.00
2019-05-18T09:34:12.081Z,20.80
2019-05-18T09:39:21.597Z,21.10
2019-05-18T09:44:20.902Z,21.40
2019-05-18T09:49:20.876Z,21.50
2019-05-18T09:54:27.372Z,21.50
2019-05-18T09:59:40.351Z,22.00
2019-05-18T10:04:38.845Z,22.30
2019-05-18T10:09:44.989Z,22.40
2019-05-18T10:14:35.352Z,22.10
2019-05-18T10:19:27.412Z,21.80
2019-05-18T10:24:28.374Z,21.70
2019-05-18T10:29:19.803Z,21.50
2019-05-18T10:34:12.880Z,21.50
2019-05-18T10:39:23.527Z,22.10
2019-05-18T10:44:14.608Z,22.90
2019-05-18T10:49:07.943Z,23.80
2019-05-18T10:54:00.588Z,23.80
2019-05-18T10:58:53.381Z,24.50
2019-05-18T11:03:44.856Z,24.40
2019-05-18T11:08:39.414Z,24.30
2019-05-18T11:14:20.420Z,24.20
2019-05-18T11:19:07.603Z,24.60
2019-05-18T11:24:10.910Z,24.10
2019-05-18T11:29:15.542Z,23.40
2019-05-18T11:34:13.995Z,23.10
2019-05-18T11:39:23.987Z,23.00
2019-05-18T11:44:13.303Z,22.90
2019-05-18T11:49:07.267Z,23.10
2019-05-18T11:53:59.753Z,23.50
2019-05-18T11:59:01.079Z,23.40
2019-05-18T12:04:01.683Z,23.30
2019-05-18T16:05:20.093Z,23.30
2019-05-18T16:15:19.027Z,23.10
2019-05-18T16:20:14.098Z,22.50
2019-05-18T16:25:07.598Z,22.00
2019-05-18T16:30:02.723Z,21.20
2019-05-18T16:34:55.689Z,20.50
2019-05-18T16:39:52.814Z,19.90
2019-05-18T16:44:59.061Z,19.40
2019-05-18T16:49:52.698Z,19.10
2019-05-18T16:55:12.414Z,18.80
2019-05-18T17:00:05.230Z,18.60
2019-05-18T17:10:23.603Z,17.90
2019-05-18T17:15:15.234Z,17.70
2019-05-18T17:20:05.565Z,17.70
2019-05-18T17:25:15.160Z,17.60
2019-05-18T17:30:05.235Z,17.60
2019-05-18T17:34:57.646Z,17.60
2019-05-18T17:39:58.331Z,17.60
2019-05-18T17:44:53.146Z,17.70
2019-05-18T17:49:59.265Z,17.60
2019-05-18T17:55:08.722Z,17.60
2019-05-18T18:00:04.201Z,17.50
2019-05-18T18:05:12.890Z,17.50
2019-05-18T18:10:32.715Z,17.50
2019-05-18T18:15:27.113Z,17.50
2019-05-18T18:20:19.241Z,17.50
2019-05-18T18:25:13.290Z,17.50
2019-05-18T18:30:15.305Z,17.40
2019-05-18T18:35:14.970Z,17.40
2019-05-18T18:40:15.915Z,17.30
2019-05-18T18:45:17.076Z,17.30
2019-05-18T18:50:32.341Z,17.20
2019-05-18T18:55:32.786Z,17.20
2019-05-18T19:00:25.770Z,17.00
2019-05-18T19:05:17.806Z,16.90
2019-05-18T19:10:24.299Z,16.80
2019-05-18T19:15:17.643Z,16.60
2019-05-18T19:20:12.208Z,16.40
2019-05-18T19:25:04.045Z,16.10
2019-05-18T19:29:58.148Z,16.00
2019-05-18T19:34:50.033Z,15.90
2019-05-18T19:39:41.998Z,16.00
2019-05-18T19:44:33.966Z,15.90
2019-05-18T19:49:26.168Z,15.80
2019-05-18T19:54:18.429Z,15.70
2019-05-18T19:59:10.489Z,15.70
2019-05-18T20:04:03.169Z,15.70
2019-05-18T20:08:55.122Z,15.70
2019-05-18T20:13:57.232Z,15.60
2019-05-18T20:18:53.256Z,15.50
2019-05-18T20:23:45.817Z,15.30
2019-05-18T20:28:37.456Z,15.20
2019-05-18T20:33:29.475Z,15.20
2019-05-18T20:38:21.265Z,14.90
2019-05-18T20:43:21.882Z,14.80
2019-05-18T20:48:17.625Z,14.60
2019-05-18T20:53:14.657Z,14.60
2019-05-18T20:58:06.074Z,14.60
2019-05-18T21:02:58.227Z,14.60
2019-05-18T21:07:58.874Z,14.50
2019-05-18T21:12:49.263Z,14.50
2019-05-18T21:17:41.587Z,14.60
2019-05-18T21:22:33.462Z,14.70
2019-05-18T21:27:25.780Z,14.80
2019-05-18T21:32:17.914Z,14.80
2019-05-18T21:37:10.062Z,14.90
2019-05-18T21:42:30.867Z,14.90
2019-05-18T21:47:57.448Z,15.00
2019-05-18T21:52:58.323Z,15.10
2019-05-18T21:57:49.610Z,15.10
2019-05-18T22:02:41.769Z,14.90
2019-05-18T22:07:42.428Z,14.70
2019-05-18T22:12:36.138Z,14.60
2019-05-18T22:17:45.901Z,14.50
2019-05-18T22:27:59.418Z,14.40
2019-05-18T22:32:51.454Z,14.30
2019-05-18T22:37:43.475Z,14.30
2019-05-18T22:42:35.447Z,14.30
2019-05-18T22:47:27.675Z,14.30
2019-05-18T22:52:19.603Z,14.20
2019-05-18T22:57:11.698Z,14.00
2019-05-18T23:02:03.429Z,13.90
2019-05-18T23:07:03.670Z,13.90
2019-05-18T23:11:54.980Z,13.90
2019-05-18T23:16:47.023Z,13.90
2019-05-18T23:21:39.516Z,13.90
2019-05-18T23:26:31.580Z,13.70
2019-05-18T23:31:23.340Z,13.70
2019-05-18T23:36:15.067Z,13.80
2019-05-18T23:41:07.183Z,13.80
2019-05-18T23:45:59.168Z,13.90
2019-05-18T23:50:50.965Z,13.90
2019-05-18T23:55:51.554Z,13.80
